Buoy 46612

sailwx.info

Track history (hours):
 
Tides and Currents Weather Stations Pressure Air Temp Water Temp Dewpoint Dewpoint Depression Visibility Wind Speed Wind Dir Waves Ship Positions

Drifting buoy 46612

Last reported at 2014-Oct-25 21:00 UTC. Time now 2014-Oct-26 01:04 UTC.
Position N 28°21' W 139°03'.

Water temperature 23.7 ° C

Date/timePositionNaut miles runAvg speedWind from/ knotsBaromVisibWave heightAir tempDewpointWater temp
2014-Oct-25 21:00N 28°21' W 139°03'0 0.1 23.7
2014-Oct-25 18:00N 28°20' W 139°03'0 0.0 23.7
2014-Oct-25 17:00N 28°20' W 139°03'0 0.1 23.7
2014-Oct-25 15:00N 28°20' W 139°03'0 0.0 23.7
2014-Oct-25 14:00N 28°20' W 139°03'0 0.4 23.7
2014-Oct-25 13:00N 28°20' W 139°03'0 0.0 23.7
2014-Oct-25 12:00N 28°20' W 139°03'0 0.0 23.7
2014-Oct-25 11:00N 28°20' W 139°03'2 0.8 23.7
2014-Oct-25 09:00N 28°20' W 139°02'1 0.3 23.7
2014-Oct-25 05:00N 28°19' W 139°03'1 0.6 23.8
2014-Oct-25 04:00N 28°19' W 139°02'0 0.2 23.8
2014-Oct-25 02:00N 28°19' W 139°02'1 1.1 23.8
2014-Oct-25 01:00N 28°19' W 139°01'0 0.0 23.9
2014-Oct-25 00:00N 28°19' W 139°01'0 0.1 23.9
2014-Oct-24 23:00N 28°19' W 139°01'1 1.0 23.9
2014-Oct-24 22:00N 28°19' W 139°02'0 0.1 23.9
2014-Oct-24 21:00N 28°19' W 139°02'1 0.7 23.9
2014-Oct-24 19:00N 28°20' W 139°01'0 0.1 23.8
2014-Oct-24 18:00N 28°20' W 139°01'0 0.0 23.8
2014-Oct-24 17:00N 28°20' W 139°01'0 0.1 23.8
2014-Oct-24 15:00N 28°20' W 139°01'0 0.3 23.9
2014-Oct-24 14:00N 28°20' W 139°01'0 0.1 23.9
2014-Oct-24 13:00N 28°20' W 139°01'0 0.1 23.9
2014-Oct-24 11:00N 28°20' W 139°01'0 0.0 23.9
2014-Oct-24 09:00N 28°20' W 139°01'0 0.1 23.9
2014-Oct-24 05:00N 28°20' W 139°01'1 0.3 23.9
2014-Oct-24 03:00N 28°20' W 139°00'2 0.8 24.0
2014-Oct-24 01:00N 28°20' W 139°02'0 0.0 24.1
2014-Oct-23 23:00N 28°20' W 139°02'0 0.4 24.1
2014-Oct-23 22:00N 28°20' W 139°02'1 0.1 24.0
2014-Oct-23 15:00N 28°19' W 139°03'0 0.1 23.9
2014-Oct-23 13:00N 28°19' W 139°03'1 0.6 23.9
2014-Oct-23 12:00N 28°19' W 139°03'1 0.6 23.9
2014-Oct-23 11:00N 28°18' W 139°03'1 0.2 24.0
2014-Oct-23 07:00N 28°18' W 139°02'0 0.0 24.0
2014-Oct-23 06:00N 28°18' W 139°02'0 0.4 24.1
2014-Oct-23 05:00N 28°18' W 139°02'2 0.4 24.1
2014-Oct-23 01:00N 28°18' W 139°01'1 0.3 24.3
2014-Oct-22 23:00N 28°18' W 139°01'0 0.0 24.4
2014-Oct-22 22:00N 28°18' W 139°01'1 0.4 24.3
2014-Oct-22 19:00N 28°18' W 139°03'0 0.0 24.0
2014-Oct-22 17:00N 28°18' W 139°03'0 0.1 23.9
2014-Oct-22 14:00N 28°18' W 139°03'1 0.7 23.9
2014-Oct-22 12:00N 28°17' W 139°02'0 0.1 23.9
2014-Oct-22 07:00N 28°16' W 139°02'1 0.4 24.0
2014-Oct-22 05:00N 28°16' W 139°01'0 0.4 24.0
2014-Oct-22 04:00N 28°16' W 139°00'1 0.7 24.0
2014-Oct-22 03:00N 28°17' W 139°01'1 0.3 24.0
2014-Oct-22 01:00N 28°17' W 139°00'0 0.4 24.1
2014-Oct-22 00:00N 28°17' W 139°00'1 0.2 24.1
2014-Oct-21 19:00N 28°16' W 139°01'2 0.3 24.0
2014-Oct-21 14:00N 28°15' W 139°00'0 0.0 24.0
2014-Oct-21 12:00N 28°15' W 139°00'1 0.1 24.0
2014-Oct-21 07:00N 28°15' W 138°60'0 0.0 24.0
2014-Oct-21 06:00N 28°15' W 138°60'0 0.3 24.0
2014-Oct-21 05:00N 28°15' W 138°60'0 0.0 24.0
2014-Oct-21 04:00N 28°15' W 138°60'0 0.1 24.0
2014-Oct-21 03:00N 28°15' W 138°60'0 0.1 24.1
2014-Oct-21 00:00N 28°15' W 138°60'0 0.2 24.1
2014-Oct-20 22:00N 28°14' W 138°60'1 0.7 24.1
2014-Oct-20 21:00N 28°15' W 138°59'0 0.0 24.1
2014-Oct-20 19:00N 28°15' W 138°59'0 0.1 24.1
2014-Oct-20 18:00N 28°15' W 138°59'0 0.0 24.1
2014-Oct-20 17:00N 28°15' W 138°59'0 0.0 24.0
2014-Oct-20 16:00N 28°15' W 138°59'1 0.4 24.0
2014-Oct-20 14:00N 28°14' W 138°59'0 0.0 24.1
2014-Oct-20 13:00N 28°14' W 138°59'0 0.2 24.1
2014-Oct-20 12:00N 28°14' W 138°58'0 0.2 24.1
2014-Oct-20 11:00N 28°14' W 138°59'1 0.2 24.1
2014-Oct-20 07:00N 28°13' W 138°58'0 0.2 24.1
2014-Oct-20 05:00N 28°13' W 138°57'1 0.9 24.1
2014-Oct-20 04:00N 28°13' W 138°56'0 0.2 24.1
2014-Oct-20 02:00N 28°13' W 138°56'0 0.2 24.1
2014-Oct-20 01:00N 28°13' W 138°56'0 0.5 24.2
2014-Oct-20 00:00N 28°13' W 138°55'0 0.1 24.2
2014-Oct-19 22:00N 28°13' W 138°55'0 0.5 24.2
2014-Oct-19 21:00N 28°13' W 138°55'1 0.7 24.2
2014-Oct-19 20:00N 28°14' W 138°55'0 0.4 24.1
2014-Oct-19 19:00N 28°14' W 138°55'0 0.2 24.2
2014-Oct-19 18:00N 28°15' W 138°55'0 0.1 24.1
2014-Oct-19 14:00N 28°14' W 138°55'2 0.2 24.1
2014-Oct-19 05:00N 28°14' W 138°53'0 0.0 24.2
2014-Oct-19 04:00N 28°14' W 138°53'0 0.4 24.2
2014-Oct-19 03:00N 28°14' W 138°53'0 0.2 24.2
2014-Oct-19 02:00N 28°14' W 138°53'1 0.5 24.3
2014-Oct-19 00:00N 28°15' W 138°54'0 0.0 24.3
2014-Oct-18 23:00N 28°15' W 138°54'0 0.1 24.4
2014-Oct-18 22:00N 28°15' W 138°54'1 0.1 24.4
2014-Oct-18 18:00N 28°15' W 138°54'1 0.2 24.1
2014-Oct-18 15:00N 28°14' W 138°55'0 0.3 24.0
2014-Oct-18 14:00N 28°14' W 138°55'0 0.3 24.1
2014-Oct-18 13:00N 28°14' W 138°54'0 0.1 24.1
2014-Oct-18 10:00N 28°14' W 138°54'0 0.2 24.1
2014-Oct-18 07:00N 28°14' W 138°54'0 0.4 24.1
2014-Oct-18 06:00N 28°14' W 138°54'1 0.7 24.1
2014-Oct-18 05:00N 28°14' W 138°53'1 0.2 24.1
2014-Oct-18 02:00N 28°14' W 138°54'1 0.4 24.2
2014-Oct-18 00:00N 28°13' W 138°53'1 0.7 24.3
2014-Oct-17 22:00N 28°14' W 138°53'0 0.1 24.4
2014-Oct-17 20:00N 28°14' W 138°53'1 0.6 24.1
2014-Oct-17 19:00N 28°14' W 138°54'0 0.0 24.1
2014-Oct-17 18:00N 28°14' W 138°54'0 0.4 24.1
2014-Oct-17 17:00N 28°14' W 138°54'0 0.2 24.0
2014-Oct-17 16:00N 28°14' W 138°54'0 0.0 24.0
2014-Oct-17 15:00N 28°14' W 138°54'0 0.2 24.0
2014-Oct-17 14:00N 28°14' W 138°54'0 0.2 24.0
2014-Oct-17 13:00N 28°14' W 138°54'1 0.6 24.0
2014-Oct-17 12:00N 28°13' W 138°54'0 0.1 24.0
2014-Oct-17 07:00N 28°14' W 138°54'1 0.3 24.1
2014-Oct-17 05:00N 28°14' W 138°54'0 0.0 24.1
2014-Oct-17 04:00N 28°14' W 138°54'0 0.0 24.1
2014-Oct-17 03:00N 28°14' W 138°54'0 0.1 24.1
2014-Oct-17 02:00N 28°14' W 138°54'0 0.2 24.1
2014-Oct-17 00:00N 28°14' W 138°54'1 0.8 24.2
2014-Oct-16 23:00N 28°15' W 138°54'1 0.4 24.2
2014-Oct-16 21:00N 28°15' W 138°55'0 0.1 24.2
2014-Oct-16 20:00N 28°14' W 138°55'1 0.5 24.1
2014-Oct-16 19:00N 28°15' W 138°55'1 0.3 24.1
2014-Oct-16 17:00N 28°14' W 138°56'1 0.2 24.0
2014-Oct-16 12:00N 28°13' W 138°56'0 0.0 24.1
2014-Oct-16 11:00N 28°13' W 138°56'2 0.4 24.1
2014-Oct-16 07:00N 28°13' W 138°54'0 0.0 24.1
2014-Oct-16 06:00N 28°13' W 138°54'1 0.7 24.2
2014-Oct-16 05:00N 28°12' W 138°54'1 0.2 24.2
2014-Oct-16 01:00N 28°13' W 138°54'1 0.7 24.5
2014-Oct-16 00:00N 28°14' W 138°53'   24.6
Track history (hours):
 
Tides and Currents Weather Stations Pressure Air Temp Water Temp Dewpoint Dewpoint Depression Visibility Wind Speed Wind Dir Waves Ship Positions

Drifting buoy 46612

Last reported at 2014-Oct-25 21:00 UTC. Time now 2014-Oct-26 01:04 UTC.
Position N 28°21' W 139°03'.

Water temperature 23.7 ° C

Date/timePositionNaut miles runAvg speedWind from/ knotsBaromVisibWave heightAir tempDewpointWater temp
2014-Oct-25 21:00N 28°21' W 139°03'0 0.1 23.7
2014-Oct-25 18:00N 28°20' W 139°03'0 0.0 23.7
2014-Oct-25 17:00N 28°20' W 139°03'0 0.1 23.7
2014-Oct-25 15:00N 28°20' W 139°03'0 0.0 23.7
2014-Oct-25 14:00N 28°20' W 139°03'0 0.4 23.7
2014-Oct-25 13:00N 28°20' W 139°03'0 0.0 23.7
2014-Oct-25 12:00N 28°20' W 139°03'0 0.0 23.7
2014-Oct-25 11:00N 28°20' W 139°03'2 0.8 23.7
2014-Oct-25 09:00N 28°20' W 139°02'1 0.3 23.7
2014-Oct-25 05:00N 28°19' W 139°03'1 0.6 23.8
2014-Oct-25 04:00N 28°19' W 139°02'0 0.2 23.8
2014-Oct-25 02:00N 28°19' W 139°02'1 1.1 23.8
2014-Oct-25 01:00N 28°19' W 139°01'0 0.0 23.9
2014-Oct-25 00:00N 28°19' W 139°01'0 0.1 23.9
2014-Oct-24 23:00N 28°19' W 139°01'1 1.0 23.9
2014-Oct-24 22:00N 28°19' W 139°02'0 0.1 23.9
2014-Oct-24 21:00N 28°19' W 139°02'1 0.7 23.9
2014-Oct-24 19:00N 28°20' W 139°01'0 0.1 23.8
2014-Oct-24 18:00N 28°20' W 139°01'0 0.0 23.8
2014-Oct-24 17:00N 28°20' W 139°01'0 0.1 23.8
2014-Oct-24 15:00N 28°20' W 139°01'0 0.3 23.9
2014-Oct-24 14:00N 28°20' W 139°01'0 0.1 23.9
2014-Oct-24 13:00N 28°20' W 139°01'0 0.1 23.9
2014-Oct-24 11:00N 28°20' W 139°01'0 0.0 23.9
2014-Oct-24 09:00N 28°20' W 139°01'0 0.1 23.9
2014-Oct-24 05:00N 28°20' W 139°01'1 0.3 23.9
2014-Oct-24 03:00N 28°20' W 139°00'2 0.8 24.0
2014-Oct-24 01:00N 28°20' W 139°02'0 0.0 24.1
2014-Oct-23 23:00N 28°20' W 139°02'0 0.4 24.1
2014-Oct-23 22:00N 28°20' W 139°02'1 0.1 24.0
2014-Oct-23 15:00N 28°19' W 139°03'0 0.1 23.9
2014-Oct-23 13:00N 28°19' W 139°03'1 0.6 23.9
2014-Oct-23 12:00N 28°19' W 139°03'1 0.6 23.9
2014-Oct-23 11:00N 28°18' W 139°03'1 0.2 24.0
2014-Oct-23 07:00N 28°18' W 139°02'0 0.0 24.0
2014-Oct-23 06:00N 28°18' W 139°02'0 0.4 24.1
2014-Oct-23 05:00N 28°18' W 139°02'2 0.4 24.1
2014-Oct-23 01:00N 28°18' W 139°01'1 0.3 24.3
2014-Oct-22 23:00N 28°18' W 139°01'0 0.0 24.4
2014-Oct-22 22:00N 28°18' W 139°01'1 0.4 24.3
2014-Oct-22 19:00N 28°18' W 139°03'0 0.0 24.0
2014-Oct-22 17:00N 28°18' W 139°03'0 0.1 23.9
2014-Oct-22 14:00N 28°18' W 139°03'1 0.7 23.9
2014-Oct-22 12:00N 28°17' W 139°02'0 0.1 23.9
2014-Oct-22 07:00N 28°16' W 139°02'1 0.4 24.0
2014-Oct-22 05:00N 28°16' W 139°01'0 0.4 24.0
2014-Oct-22 04:00N 28°16' W 139°00'1 0.7 24.0
2014-Oct-22 03:00N 28°17' W 139°01'1 0.3 24.0
2014-Oct-22 01:00N 28°17' W 139°00'0 0.4 24.1
2014-Oct-22 00:00N 28°17' W 139°00'1 0.2 24.1
2014-Oct-21 19:00N 28°16' W 139°01'2 0.3 24.0
2014-Oct-21 14:00N 28°15' W 139°00'0 0.0 24.0
2014-Oct-21 12:00N 28°15' W 139°00'1 0.1 24.0
2014-Oct-21 07:00N 28°15' W 138°60'0 0.0 24.0
2014-Oct-21 06:00N 28°15' W 138°60'0 0.3 24.0
2014-Oct-21 05:00N 28°15' W 138°60'0 0.0 24.0
2014-Oct-21 04:00N 28°15' W 138°60'0 0.1 24.0
2014-Oct-21 03:00N 28°15' W 138°60'0 0.1 24.1
2014-Oct-21 00:00N 28°15' W 138°60'0 0.2 24.1
2014-Oct-20 22:00N 28°14' W 138°60'1 0.7 24.1
2014-Oct-20 21:00N 28°15' W 138°59'0 0.0 24.1
2014-Oct-20 19:00N 28°15' W 138°59'0 0.1 24.1
2014-Oct-20 18:00N 28°15' W 138°59'0 0.0 24.1
2014-Oct-20 17:00N 28°15' W 138°59'0 0.0 24.0
2014-Oct-20 16:00N 28°15' W 138°59'1 0.4 24.0
2014-Oct-20 14:00N 28°14' W 138°59'0 0.0 24.1
2014-Oct-20 13:00N 28°14' W 138°59'0 0.2 24.1
2014-Oct-20 12:00N 28°14' W 138°58'0 0.2 24.1
2014-Oct-20 11:00N 28°14' W 138°59'1 0.2 24.1
2014-Oct-20 07:00N 28°13' W 138°58'0 0.2 24.1
2014-Oct-20 05:00N 28°13' W 138°57'1 0.9 24.1
2014-Oct-20 04:00N 28°13' W 138°56'0 0.2 24.1
2014-Oct-20 02:00N 28°13' W 138°56'0 0.2 24.1
2014-Oct-20 01:00N 28°13' W 138°56'0 0.5 24.2
2014-Oct-20 00:00N 28°13' W 138°55'0 0.1 24.2
2014-Oct-19 22:00N 28°13' W 138°55'0 0.5 24.2
2014-Oct-19 21:00N 28°13' W 138°55'1 0.7 24.2
2014-Oct-19 20:00N 28°14' W 138°55'0 0.4 24.1
2014-Oct-19 19:00N 28°14' W 138°55'0 0.2 24.2
2014-Oct-19 18:00N 28°15' W 138°55'0 0.1 24.1
2014-Oct-19 14:00N 28°14' W 138°55'2 0.2 24.1
2014-Oct-19 05:00N 28°14' W 138°53'0 0.0 24.2
2014-Oct-19 04:00N 28°14' W 138°53'0 0.4 24.2
2014-Oct-19 03:00N 28°14' W 138°53'0 0.2 24.2
2014-Oct-19 02:00N 28°14' W 138°53'1 0.5 24.3
2014-Oct-19 00:00N 28°15' W 138°54'0 0.0 24.3
2014-Oct-18 23:00N 28°15' W 138°54'0 0.1 24.4
2014-Oct-18 22:00N 28°15' W 138°54'1 0.1 24.4
2014-Oct-18 18:00N 28°15' W 138°54'1 0.2 24.1
2014-Oct-18 15:00N 28°14' W 138°55'0 0.3 24.0
2014-Oct-18 14:00N 28°14' W 138°55'0 0.3 24.1
2014-Oct-18 13:00N 28°14' W 138°54'0 0.1 24.1
2014-Oct-18 10:00N 28°14' W 138°54'0 0.2 24.1
2014-Oct-18 07:00N 28°14' W 138°54'0 0.4 24.1
2014-Oct-18 06:00N 28°14' W 138°54'1 0.7 24.1
2014-Oct-18 05:00N 28°14' W 138°53'1 0.2 24.1
2014-Oct-18 02:00N 28°14' W 138°54'1 0.4 24.2
2014-Oct-18 00:00N 28°13' W 138°53'1 0.7 24.3
2014-Oct-17 22:00N 28°14' W 138°53'0 0.1 24.4
2014-Oct-17 20:00N 28°14' W 138°53'1 0.6 24.1
2014-Oct-17 19:00N 28°14' W 138°54'0 0.0 24.1
2014-Oct-17 18:00N 28°14' W 138°54'0 0.4 24.1
2014-Oct-17 17:00N 28°14' W 138°54'0 0.2 24.0
2014-Oct-17 16:00N 28°14' W 138°54'0 0.0 24.0
2014-Oct-17 15:00N 28°14' W 138°54'0 0.2 24.0
2014-Oct-17 14:00N 28°14' W 138°54'0 0.2 24.0
2014-Oct-17 13:00N 28°14' W 138°54'1 0.6 24.0
2014-Oct-17 12:00N 28°13' W 138°54'0 0.1 24.0
2014-Oct-17 07:00N 28°14' W 138°54'1 0.3 24.1
2014-Oct-17 05:00N 28°14' W 138°54'0 0.0 24.1
2014-Oct-17 04:00N 28°14' W 138°54'0 0.0 24.1
2014-Oct-17 03:00N 28°14' W 138°54'0 0.1 24.1
2014-Oct-17 02:00N 28°14' W 138°54'0 0.2 24.1
2014-Oct-17 00:00N 28°14' W 138°54'1 0.8 24.2
2014-Oct-16 23:00N 28°15' W 138°54'1 0.4 24.2
2014-Oct-16 21:00N 28°15' W 138°55'0 0.1 24.2
2014-Oct-16 20:00N 28°14' W 138°55'1 0.5 24.1
2014-Oct-16 19:00N 28°15' W 138°55'1 0.3 24.1
2014-Oct-16 17:00N 28°14' W 138°56'1 0.2 24.0
2014-Oct-16 12:00N 28°13' W 138°56'0 0.0 24.1
2014-Oct-16 11:00N 28°13' W 138°56'2 0.4 24.1
2014-Oct-16 07:00N 28°13' W 138°54'0 0.0 24.1
2014-Oct-16 06:00N 28°13' W 138°54'1 0.7 24.2
2014-Oct-16 05:00N 28°12' W 138°54'1 0.2 24.2
2014-Oct-16 01:00N 28°13' W 138°54'1 0.7 24.5
2014-Oct-16 00:00N 28°14' W 138°53'   24.6

Dump ship's entire track history